createdAt,value
2019-03-23T00:03:38.555Z,45.87
2019-03-23T00:08:42.783Z,52.37
2019-03-23T00:13:47.015Z,58.90
2019-03-23T00:18:51.746Z,48.97
2019-03-23T00:23:55.981Z,49.70
2019-03-23T00:29:00.230Z,53.13
2019-03-23T00:34:04.466Z,46.50
2019-03-23T00:39:09.000Z,51.17
2019-03-23T00:44:13.644Z,54.43
2019-03-23T00:49:17.900Z,53.93
2019-03-23T00:54:22.137Z,52.63
2019-03-23T00:59:26.691Z,51.53
2019-03-23T01:04:30.929Z,47.47
2019-03-23T01:09:35.165Z,47.60
2019-03-23T01:14:40.414Z,56.80
2019-03-23T01:19:44.716Z,49.47
2019-03-23T01:24:49.040Z,53.93
2019-03-23T01:29:53.850Z,54.53
2019-03-23T01:34:58.083Z,60.17
2019-03-23T01:40:02.296Z,55.10
2019-03-23T01:45:07.580Z,48.33
2019-03-23T01:50:12.242Z,50.83
2019-03-23T01:55:16.461Z,47.53
2019-03-23T02:00:20.958Z,49.23
2019-03-23T02:05:25.581Z,52.67
2019-03-23T02:10:29.801Z,54.20
2019-03-23T02:15:34.316Z,52.03
2019-03-23T02:20:38.536Z,54.40
2019-03-23T02:25:49.196Z,52.97
2019-03-23T02:30:53.409Z,56.17
2019-03-23T02:35:57.875Z,56.90
2019-03-23T02:41:02.110Z,55.67
2019-03-23T02:46:06.340Z,52.53
2019-03-23T02:51:10.890Z,52.60
2019-03-23T02:56:15.321Z,54.00
2019-03-23T03:01:19.540Z,53.23
2019-03-23T03:06:24.091Z,52.07
2019-03-23T03:11:28.335Z,54.17
2019-03-23T03:16:32.562Z,49.50
2019-03-23T03:21:36.794Z,52.03
2019-03-23T03:26:41.012Z,56.03
2019-03-23T03:31:45.226Z,52.33
2019-03-23T03:36:49.451Z,58.10
2019-03-23T03:41:54.074Z,59.37
2019-03-23T03:46:58.617Z,52.53
2019-03-23T03:52:02.832Z,52.50
2019-03-23T03:57:07.583Z,55.23
2019-03-23T04:02:11.797Z,52.33
2019-03-23T04:07:16.026Z,53.87
2019-03-23T04:12:20.601Z,51.83
2019-03-23T04:17:24.859Z,47.43
2019-03-23T04:22:29.587Z,52.40
2019-03-23T04:27:33.886Z,44.80
2019-03-23T04:32:38.079Z,48.47
2019-03-23T04:37:42.298Z,48.70
2019-03-23T04:42:46.524Z,54.87
2019-03-23T04:47:50.725Z,56.63
2019-03-23T04:53:14.172Z,53.33
2019-03-23T04:58:18.729Z,52.27
2019-03-23T05:03:23.433Z,49.97
2019-03-23T05:08:33.331Z,53.43
2019-03-23T05:13:33.785Z,53.27
2019-03-23T05:18:38.314Z,57.27
2019-03-23T05:23:42.840Z,57.80
2019-03-23T05:28:47.057Z,53.63
2019-03-23T05:33:51.281Z,51.27
2019-03-23T05:38:56.269Z,53.23
2019-03-23T05:44:00.712Z,52.40
2019-03-23T05:49:05.250Z,53.20
2019-03-23T05:54:09.449Z,47.13
2019-03-23T05:59:13.680Z,50.67
2019-03-23T06:04:18.147Z,53.50
2019-03-23T06:09:22.362Z,48.97
2019-03-23T06:14:26.939Z,50.20
2019-03-23T06:19:31.525Z,53.03
2019-03-23T06:24:35.790Z,57.00
2019-03-23T06:29:40.058Z,51.27
2019-03-23T06:34:44.262Z,57.03
2019-03-23T06:39:48.737Z,49.20
2019-03-23T06:44:53.019Z,58.50
2019-03-23T06:49:57.270Z,55.47
2019-03-23T06:55:01.497Z,49.00
2019-03-23T07:00:08.126Z,48.27
2019-03-23T07:05:13.184Z,53.37
2019-03-23T07:10:17.740Z,48.33
2019-03-23T07:15:21.960Z,57.90
2019-03-23T07:20:26.624Z,51.80
2019-03-23T07:25:30.874Z,50.67
2019-03-23T07:30:35.782Z,55.40
2019-03-23T07:35:39.967Z,49.03
2019-03-23T07:40:44.190Z,52.77
2019-03-23T07:45:48.406Z,54.10
2019-03-23T07:50:52.657Z,53.00
2019-03-23T07:55:56.928Z,52.73
2019-03-23T08:01:01.710Z,49.87
2019-03-23T08:06:05.972Z,46.87
2019-03-23T08:11:10.194Z,46.70
2019-03-23T08:16:14.417Z,41.70
2019-03-23T08:21:18.711Z,37.47
2019-03-23T08:26:22.983Z,36.60
2019-03-23T08:31:27.209Z,35.03
2019-03-23T08:36:31.422Z,33.33
2019-03-23T08:41:35.693Z,31.17
2019-03-23T08:46:40.267Z,27.50
2019-03-23T08:51:44.893Z,24.20
2019-03-23T08:56:49.203Z,22.52
2019-03-23T09:01:53.429Z,17.90
2019-03-23T09:06:57.645Z,16.20
2019-03-23T09:12:01.850Z,14.90
2019-03-23T09:17:06.142Z,17.52
2019-03-23T09:22:10.365Z,14.20
2019-03-23T09:27:15.197Z,13.43
2019-03-23T09:32:19.749Z,14.23
2019-03-23T09:37:24.237Z,14.30
2019-03-23T09:42:28.474Z,11.28
2019-03-23T09:47:32.699Z,12.90
2019-03-23T09:52:36.974Z,15.25
2019-03-23T09:57:41.225Z,10.50
2019-03-23T10:02:45.513Z,11.48
2019-03-23T10:07:49.718Z,10.18
2019-03-23T10:12:53.939Z,10.28
2019-03-23T10:17:58.554Z,7.97
2019-03-23T10:23:02.892Z,7.80
2019-03-23T10:28:07.405Z,11.53
2019-03-23T10:33:11.976Z,7.22
2019-03-23T10:38:17.002Z,9.13
2019-03-23T10:43:21.578Z,9.35
2019-03-23T10:48:25.781Z,8.70
2019-03-23T10:53:30.327Z,9.55
2019-03-23T10:58:34.629Z,12.20
2019-03-23T11:03:38.864Z,10.40
2019-03-23T11:08:43.076Z,8.93
2019-03-23T11:13:47.330Z,11.68
2019-03-23T11:18:51.858Z,10.65
2019-03-23T11:23:56.085Z,11.63
2019-03-23T11:29:00.440Z,11.10
2019-03-23T11:34:05.050Z,9.48
2019-03-23T11:39:09.570Z,13.28
2019-03-23T11:44:14.145Z,11.20
2019-03-23T11:49:18.759Z,11.35
2019-03-23T11:54:22.979Z,11.03
2019-03-23T11:59:27.263Z,12.58
2019-03-23T12:04:31.769Z,11.03
2019-03-23T12:09:36.304Z,13.35
2019-03-23T12:14:40.529Z,9.93
2019-03-23T12:19:44.813Z,13.65
2019-03-23T12:24:49.007Z,12.50
2019-03-23T12:29:53.229Z,10.95
2019-03-23T12:34:57.800Z,16.87
2019-03-23T12:40:02.410Z,14.87
2019-03-23T12:45:07.359Z,15.53
2019-03-23T12:50:11.906Z,13.62
2019-03-23T12:55:16.137Z,15.20
2019-03-23T13:00:20.518Z,13.70
2019-03-23T13:05:25.053Z,11.73
2019-03-23T13:10:29.305Z,12.73
2019-03-23T13:15:33.845Z,11.48
2019-03-23T13:20:38.113Z,11.35
2019-03-23T13:25:42.393Z,10.78
2019-03-23T13:30:46.669Z,12.03
2019-03-23T13:35:50.878Z,9.80
2019-03-23T13:40:55.112Z,10.78
2019-03-23T13:46:03.045Z,12.20
2019-03-23T13:51:07.394Z,12.95
2019-03-23T13:56:11.615Z,14.10
2019-03-23T14:01:16.101Z,12.13
2019-03-23T14:06:20.401Z,13.20
2019-03-23T14:11:24.657Z,13.55
2019-03-23T14:16:29.183Z,13.22
2019-03-23T14:21:33.409Z,12.88
2019-03-23T14:26:37.957Z,11.48
2019-03-23T14:31:42.265Z,14.55
2019-03-23T14:36:46.521Z,13.68
2019-03-23T14:41:51.208Z,13.98
2019-03-23T14:46:58.307Z,12.98
2019-03-23T14:52:02.585Z,16.40
2019-03-23T14:57:06.818Z,16.45
2019-03-23T15:02:11.105Z,15.93
2019-03-23T15:07:15.850Z,16.77
2019-03-23T15:12:21.361Z,18.85
2019-03-23T15:17:25.636Z,20.27
2019-03-23T15:22:29.885Z,16.90
2019-03-23T15:27:35.127Z,22.77
2019-03-23T15:32:39.657Z,19.82
2019-03-23T15:37:44.327Z,17.87
2019-03-23T15:42:48.614Z,20.52
2019-03-23T15:47:53.091Z,23.10
2019-03-23T15:52:57.641Z,19.45
2019-03-23T15:58:01.955Z,18.25
2019-03-23T16:03:06.527Z,21.70
2019-03-23T16:08:11.057Z,24.63
2019-03-23T16:13:15.311Z,29.98
2019-03-23T16:18:19.837Z,25.97
2019-03-23T16:23:24.070Z,21.73
2019-03-23T16:28:28.309Z,25.80
2019-03-23T16:33:32.573Z,27.45
2019-03-23T16:38:36.822Z,29.27
2019-03-23T16:43:42.348Z,31.20
2019-03-23T16:48:46.575Z,34.73
2019-03-23T16:53:51.113Z,36.05
2019-03-23T16:58:55.634Z,37.90
2019-03-23T17:04:00.005Z,39.07
2019-03-23T17:09:05.022Z,46.83
2019-03-23T17:14:09.243Z,46.70
2019-03-23T17:19:13.441Z,52.87
2019-03-23T17:24:17.774Z,58.97
2019-03-23T17:29:22.405Z,57.73
2019-03-23T17:34:26.630Z,66.50
2019-03-23T17:39:30.933Z,65.13
2019-03-23T17:44:35.280Z,62.93
2019-03-23T17:49:39.541Z,71.73
2019-03-23T17:54:43.835Z,73.27
2019-03-23T17:59:48.213Z,66.30
2019-03-23T18:04:52.465Z,73.30
2019-03-23T18:09:56.670Z,67.90
2019-03-23T18:15:01.459Z,67.43
2019-03-23T18:20:06.558Z,70.83
2019-03-23T18:25:12.445Z,65.27
2019-03-23T18:30:33.642Z,65.77
2019-03-23T18:35:38.016Z,66.83
2019-03-23T18:40:42.309Z,67.40
2019-03-23T18:45:46.615Z,58.60
2019-03-23T18:50:51.718Z,59.57
2019-03-23T18:55:55.974Z,57.83
2019-03-23T19:01:00.791Z,54.27
2019-03-23T19:06:05.119Z,50.13
2019-03-23T19:11:09.658Z,58.20
2019-03-23T19:16:14.010Z,49.20
2019-03-23T19:21:18.225Z,53.13
2019-03-23T19:26:23.054Z,48.10
2019-03-23T19:31:27.342Z,48.23
2019-03-23T19:36:31.598Z,53.27
2019-03-23T19:41:35.837Z,51.93
2019-03-23T19:46:40.080Z,55.73
2019-03-23T19:51:44.701Z,51.97
2019-03-23T19:56:53.894Z,47.13
2019-03-23T20:01:58.167Z,51.63
2019-03-23T20:07:02.391Z,50.17
2019-03-23T20:12:06.678Z,52.37
2019-03-23T20:17:11.664Z,48.53
2019-03-23T20:22:15.868Z,51.17
2019-03-23T20:27:20.089Z,49.80
2019-03-23T20:32:24.326Z,55.63
2019-03-23T20:37:28.590Z,62.77
2019-03-23T20:42:32.795Z,54.50
2019-03-23T20:47:39.237Z,60.87
2019-03-23T20:52:46.229Z,61.70
2019-03-23T20:57:50.441Z,64.23
2019-03-23T21:02:54.838Z,65.53
2019-03-23T21:07:59.338Z,59.07
2019-03-23T21:13:03.973Z,66.53
2019-03-23T21:18:08.174Z,65.93
2019-03-23T21:23:12.378Z,64.80
2019-03-23T21:28:16.594Z,62.00
2019-03-23T21:33:20.812Z,63.17
2019-03-23T21:38:25.459Z,61.67
2019-03-23T21:43:30.004Z,61.40
2019-03-23T21:48:34.259Z,63.60
2019-03-23T21:53:38.874Z,61.27
2019-03-23T21:58:43.425Z,67.13
2019-03-23T22:03:47.650Z,73.60
2019-03-23T22:08:51.865Z,59.47
2019-03-23T22:13:56.087Z,65.80
2019-03-23T22:19:01.007Z,60.37
2019-03-23T22:24:05.259Z,61.03
2019-03-23T22:29:09.479Z,64.50
2019-03-23T22:34:13.681Z,60.40
2019-03-23T22:39:18.140Z,65.17
2019-03-23T22:44:22.363Z,65.67
2019-03-23T22:49:26.573Z,60.73
2019-03-23T22:54:30.794Z,64.80
2019-03-23T22:59:35.598Z,63.00
2019-03-23T23:04:40.181Z,66.50
2019-03-23T23:09:44.398Z,67.10
2019-03-23T23:14:48.625Z,67.33
2019-03-23T23:19:52.857Z,69.47
2019-03-23T23:24:57.383Z,63.53
2019-03-23T23:30:01.644Z,63.03
2019-03-23T23:35:06.464Z,71.07
2019-03-23T23:40:11.105Z,70.50
2019-03-23T23:45:16.052Z,67.80
2019-03-23T23:50:20.341Z,66.47
2019-03-23T23:55:24.560Z,61.23
